Time;durP1;ratioP1;P1;durP2;ratioP2;P2;SDS_P1;SDS_P2;PMS_P1;PMS_P2;Temp;Humidity;BMP_temperature;BMP_pressure;BME280_temperature;BME280_humidity;BME280_pressure;Samples;Min_cycle;Max_cycle;Signal;HPM_P1;HPM_P2
2021/12/11 00:02:28;;;;;;;37.30;21.42;;;9.10;99.90;;;;;;4882455;29;20518;-67
2021/12/11 00:04:57;;;;;;;45.80;20.85;;;9.20;99.90;;;;;;4880096;29;20073;-67
2021/12/11 00:07:27;;;;;;;24.13;6.75;;;9.10;99.90;;;;;;4882985;29;20044;-66
2021/12/11 00:10:00;;;;;;;24.90;6.57;;;8.90;99.90;;;;;;4893674;29;20506;-66
2021/12/11 00:12:32;;;;;;;26.27;6.32;;;8.90;99.90;;;;;;4888797;29;20110;-66
2021/12/11 00:15:17;;;;;;;23.98;6.80;;;8.90;99.90;;;;;;4884691;29;20048;-65
2021/12/11 00:17:43;;;;;;;32.65;7.28;;;9.00;99.90;;;;;;4884463;29;20661;-66
2021/12/11 00:20:22;;;;;;;30.85;12.50;;;8.90;99.90;;;;;;4894876;29;20608;-66
2021/12/11 00:22:48;;;;;;;29.13;7.75;;;8.90;99.90;;;;;;4879662;29;20081;-65
2021/12/11 00:25:15;;;;;;;30.52;8.00;;;9.00;99.90;;;;;;4884093;29;20107;-65
2021/12/11 00:27:44;;;;;;;33.28;11.45;;;8.90;99.90;;;;;;4884081;29;20108;-65
2021/12/11 00:30:20;;;;;;;49.00;21.85;;;8.80;99.90;;;;;;4920480;29;20095;-65
2021/12/11 00:32:46;;;;;;;46.13;20.55;;;8.80;99.90;;;;;;4920963;29;20035;-65
2021/12/11 00:35:17;;;;;;;62.13;25.00;;;8.70;99.90;;;;;;4918336;29;20036;-66
2021/12/11 00:37:42;;;;;;;44.33;18.52;;;8.70;99.90;;;;;;4931299;29;20043;-66
2021/12/11 00:40:13;;;;;;;45.65;10.07;;;8.60;99.90;;;;;;4921864;29;20024;-67
2021/12/11 00:42:39;;;;;;;42.90;15.10;;;8.50;99.90;;;;;;4920784;29;20103;-65
2021/12/11 00:45:16;;;;;;;92.30;35.83;;;8.60;99.90;;;;;;4920939;29;20556;-66
2021/12/11 00:47:53;;;;;;;86.22;39.45;;;8.50;99.90;;;;;;4918116;29;20032;-66
2021/12/11 00:50:25;;;;;;;59.95;26.98;;;8.60;99.90;;;;;;4931761;29;20024;-66
2021/12/11 00:52:55;;;;;;;24.58;6.45;;;8.70;99.90;;;;;;4931131;29;20043;-66
2021/12/11 00:55:43;;;;;;;29.83;5.18;;;8.50;99.90;;;;;;4922384;29;20028;-66
2021/12/11 00:58:22;;;;;;;29.55;5.70;;;8.50;99.90;;;;;;4930045;29;20043;-65
2021/12/11 01:01:08;;;;;;;32.47;7.70;;;8.60;99.90;;;;;;4928456;29;20035;-66
2021/12/11 01:03:52;;;;;;;30.73;6.97;;;8.60;99.90;;;;;;4923767;29;20048;-66
2021/12/11 01:06:37;;;;;;;26.10;5.85;;;8.60;99.90;;;;;;4922257;29;20095;-65
2021/12/11 01:09:18;;;;;;;19.58;4.55;;;8.60;99.90;;;;;;4928297;29;20482;-65
2021/12/11 01:12:10;;;;;;;22.92;4.38;;;8.50;99.90;;;;;;4918270;29;20032;-64
2021/12/11 01:14:50;;;;;;;21.90;5.80;;;8.50;99.90;;;;;;4931558;29;20087;-65
2021/12/11 01:17:25;;;;;;;18.73;4.63;;;8.50;99.90;;;;;;4917131;29;20044;-66
2021/12/11 01:19:59;;;;;;;24.13;5.60;;;8.50;99.90;;;;;;4917818;29;20084;-66
2021/12/11 01:22:35;;;;;;;;;;;8.50;99.90;;;;;;4920234;29;20028;-65
2021/12/11 01:25:04;;;;;;;44.42;18.23;;;8.50;99.90;;;;;;4920196;29;19918;-65
2021/12/11 01:27:30;;;;;;;35.92;13.25;;;8.50;99.90;;;;;;4920769;29;20118;-66
2021/12/11 01:29:59;;;;;;;62.70;31.48;;;8.50;99.90;;;;;;4920042;29;20031;-66
2021/12/11 01:32:29;;;;;;;39.47;16.15;;;8.50;99.90;;;;;;4918118;29;20032;-66
2021/12/11 01:34:57;;;;;;;40.85;14.38;;;8.60;99.90;;;;;;4917486;29;20040;-65
2021/12/11 01:37:23;;;;;;;38.38;12.75;;;8.40;99.90;;;;;;4919694;29;20051;-66
2021/12/11 01:39:51;;;;;;;27.05;8.10;;;8.30;99.90;;;;;;4920049;29;20075;-66
2021/12/11 01:42:21;;;;;;;31.45;6.90;;;8.30;99.90;;;;;;4919949;29;20028;-65
2021/12/11 01:44:48;;;;;;;21.58;6.25;;;8.30;99.90;;;;;;4917926;29;20501;-66
2021/12/11 01:47:20;;;;;;;28.70;6.28;;;8.50;99.90;;;;;;4931034;29;20028;-66
2021/12/11 01:49:50;;;;;;;32.85;6.15;;;8.30;99.90;;;;;;4917557;29;20043;-65
2021/12/11 01:52:29;;;;;;;26.92;5.45;;;8.20;99.90;;;;;;4919668;29;20044;-66
2021/12/11 01:54:56;;;;;;;22.67;6.40;;;8.20;99.90;;;;;;4919915;29;20032;-66
2021/12/11 01:57:26;;;;;;;19.15;4.18;;;8.20;99.90;;;;;;4920131;29;20031;-66
2021/12/11 01:59:59;;;;;;;16.83;3.95;;;8.30;99.90;;;;;;4918522;29;20043;-65
2021/12/11 02:02:41;;;;;;;22.90;4.25;;;8.30;99.90;;;;;;4930761;29;20056;-66
2021/12/11 02:05:08;;;;;;;25.05;5.50;;;8.20;99.90;;;;;;4916031;29;20034;-66
2021/12/11 02:07:44;;;;;;;16.73;4.18;;;8.20;99.90;;;;;;4930506;29;20495;-65
2021/12/11 02:10:23;;;;;;;18.85;3.55;;;8.40;99.90;;;;;;4929160;29;20074;-65
2021/12/11 02:12:51;;;;;;;21.75;3.70;;;8.30;99.90;;;;;;4921476;29;20028;-66
2021/12/11 02:15:27;;;;;;;26.67;4.40;;;8.20;99.90;;;;;;4921583;29;20035;-66
2021/12/11 02:18:01;;;;;;;21.38;3.75;;;8.10;99.90;;;;;;4928656;29;20055;-66
2021/12/11 02:20:31;;;;;;;21.45;3.90;;;8.00;99.90;;;;;;4916412;29;20100;-65
2021/12/11 02:22:58;;;;;;;17.23;3.88;;;8.00;99.90;;;;;;4931081;29;20611;-65
2021/12/11 02:25:29;;;;;;;24.45;3.75;;;8.00;99.90;;;;;;4919761;29;20407;-65
2021/12/11 02:28:00;;;;;;;21.27;3.45;;;8.00;99.90;;;;;;4919704;29;20040;-66
2021/12/11 02:30:32;;;;;;;22.25;3.20;;;8.00;99.90;;;;;;4922937;29;20056;-65
2021/12/11 02:33:14;;;;;;;22.98;3.85;;;8.10;99.90;;;;;;4923297;29;20043;-65
2021/12/11 02:35:45;;;;;;;13.75;3.03;;;8.10;99.90;;;;;;4923364;29;20024;-66
2021/12/11 02:38:23;;;;;;;14.93;3.70;;;8.20;99.90;;;;;;4919435;29;20110;-66
2021/12/11 02:40:54;;;;;;;19.83;3.25;;;8.30;99.90;;;;;;4921309;29;20071;-64
2021/12/11 02:43:40;;;;;;;21.10;3.65;;;8.20;99.90;;;;;;4923502;29;20032;-66
2021/12/11 02:46:21;;;;;;;16.25;2.92;;;8.10;99.90;;;;;;4922804;29;20028;-66
2021/12/11 02:49:01;;;;;;;18.23;3.08;;;8.10;99.90;;;;;;4922702;29;20040;-65
2021/12/11 02:51:33;;;;;;;24.08;3.45;;;8.10;99.90;;;;;;4926255;29;20397;-66
2021/12/11 02:54:08;;;;;;;22.80;3.63;;;8.00;99.90;;;;;;4930897;29;20044;-65
2021/12/11 02:56:45;;;;;;;18.98;3.53;;;8.00;99.90;;;;;;4922670;29;20020;-65
2021/12/11 02:59:15;;;;;;;19.83;3.40;;;8.10;99.90;;;;;;4919390;29;20083;-66
2021/12/11 03:01:49;;;;;;;26.60;3.85;;;8.10;99.90;;;;;;4921272;29;20046;-65
2021/12/11 03:04:25;;;;;;;17.27;3.08;;;8.00;99.90;;;;;;4932648;29;20031;-65
2021/12/11 03:06:53;;;;;;;24.35;3.78;;;7.90;99.90;;;;;;4924478;29;20095;-64
2021/12/11 03:09:23;;;;;;;18.08;3.75;;;7.80;99.90;;;;;;4923257;29;20024;-65
2021/12/11 03:11:50;;;;;;;20.75;3.95;;;8.00;99.90;;;;;;4922675;29;20066;-65
2021/12/11 03:14:18;;;;;;;17.23;3.30;;;8.00;99.90;;;;;;4919913;29;20032;-65
2021/12/11 03:16:45;;;;;;;15.48;3.13;;;7.90;99.90;;;;;;4920114;29;20076;-66
2021/12/11 03:19:14;;;;;;;13.60;3.13;;;7.90;99.90;;;;;;4903859;29;20401;-65
2021/12/11 03:21:41;;;;;;;20.10;4.07;;;8.00;99.90;;;;;;4922289;29;20028;-65
2021/12/11 03:24:07;;;;;;;15.77;3.83;;;7.80;99.90;;;;;;4922366;29;20044;-65
2021/12/11 03:26:34;;;;;;;25.05;4.10;;;7.90;99.90;;;;;;4922019;29;20026;-64
2021/12/11 03:28:59;;;;;;;26.92;4.68;;;7.80;99.90;;;;;;4919012;29;20091;-66
2021/12/11 03:31:25;;;;;;;27.08;4.30;;;7.60;99.90;;;;;;4922015;29;20485;-65
2021/12/11 03:33:55;;;;;;;18.15;4.28;;;7.50;99.90;;;;;;4921982;29;20045;-66
2021/12/11 03:36:25;;;;;;;21.95;3.90;;;7.50;99.90;;;;;;4922367;29;20078;-65
2021/12/11 03:38:55;;;;;;;16.58;4.00;;;7.60;99.90;;;;;;4922243;29;20111;-65
2021/12/11 03:41:23;;;;;;;23.02;4.80;;;7.60;99.90;;;;;;4919298;29;20060;-65
2021/12/11 03:43:49;;;;;;;22.88;4.30;;;7.50;99.90;;;;;;4933467;29;20067;-65
2021/12/11 03:46:15;;;;;;;19.48;4.70;;;7.60;99.90;;;;;;4922157;29;20413;-65
2021/12/11 03:48:56;;;;;;;21.95;4.53;;;7.60;99.90;;;;;;4922029;29;20044;-66
2021/12/11 03:51:28;;;;;;;17.60;4.80;;;7.60;99.90;;;;;;4922356;29;20393;-66
2021/12/11 03:53:55;;;;;;;24.73;4.78;;;7.60;99.90;;;;;;4922170;29;20040;-65
2021/12/11 03:56:21;;;;;;;18.95;4.35;;;7.60;99.90;;;;;;4919359;29;20032;-65
2021/12/11 03:58:51;;;;;;;13.73;3.65;;;7.60;99.90;;;;;;4932683;29;20075;-65
2021/12/11 04:01:46;;;;;;;25.13;4.47;;;7.70;99.90;;;;;;4921545;29;20036;-64
2021/12/11 04:04:16;;;;;;;17.33;4.20;;;7.70;99.90;;;;;;4930631;29;20129;-65
2021/12/11 04:06:43;;;;;;;45.20;18.70;;;7.80;99.90;;;;;;4924178;29;20021;-65
2021/12/11 04:09:12;;;;;;;44.30;22.20;;;7.80;99.90;;;;;;4923088;29;20047;-65
2021/12/11 04:11:38;;;;;;;29.35;10.98;;;7.70;99.90;;;;;;4932377;29;20016;-64
2021/12/11 04:14:15;;;;;;;37.47;10.40;;;7.70;99.90;;;;;;4917644;29;20051;-65
2021/12/11 04:16:43;;;;;;;22.70;6.70;;;7.60;99.90;;;;;;4931821;29;20434;-64
2021/12/11 04:19:12;;;;;;;21.00;5.70;;;7.50;99.90;;;;;;4930722;29;20086;-64
2021/12/11 04:21:39;;;;;;;20.02;4.53;;;7.40;99.90;;;;;;4924633;29;20072;-64
2021/12/11 04:24:07;;;;;;;19.20;4.10;;;7.40;99.90;;;;;;4921469;29;20034;-65
2021/12/11 04:26:34;;;;;;;19.50;3.80;;;7.50;99.90;;;;;;4920987;29;20023;-64
2021/12/11 04:29:00;;;;;;;19.60;3.70;;;7.40;99.90;;;;;;4918230;29;20145;-65
2021/12/11 04:31:30;;;;;;;34.92;28.25;;;7.40;99.90;;;;;;4920883;29;20041;-66
2021/12/11 04:34:02;;;;;;;17.60;3.83;;;7.40;99.90;;;;;;4920809;29;20040;-65
2021/12/11 04:36:33;;;;;;;15.05;3.83;;;7.40;99.90;;;;;;4921260;29;20028;-65
2021/12/11 04:39:02;;;;;;;28.05;4.25;;;7.40;99.90;;;;;;4921283;29;20036;-65
2021/12/11 04:41:36;;;;;;;17.20;3.92;;;7.30;99.90;;;;;;4919788;29;20028;-65
2021/12/11 04:44:07;;;;;;;21.13;5.00;;;7.30;99.90;;;;;;4917340;29;20035;-66
2021/12/11 04:46:33;;;;;;;18.00;5.65;;;7.30;99.90;;;;;;4931848;29;20047;-65
2021/12/11 04:51:57;;;;;;;16.98;5.38;;;7.30;99.90;;;;;;4923873;29;20039;-65
2021/12/11 04:54:42;;;;;;;37.10;18.70;;;7.30;99.90;;;;;;4925773;29;20032;-65
2021/12/11 04:57:52;;;;;;;28.65;11.48;;;7.30;99.90;;;;;;4920789;29;20036;-64
2021/12/11 05:00:26;;;;;;;27.65;10.60;;;7.10;99.90;;;;;;4921229;29;20030;-65
2021/12/11 05:11:01;;;;;;;26.73;6.45;;;6.90;99.90;;;;;;4917824;29;20039;-64
2021/12/11 05:13:29;;;;;;;18.17;6.32;;;6.80;99.90;;;;;;4920436;29;20040;-65
2021/12/11 05:16:00;;;;;;;24.95;7.43;;;6.80;99.90;;;;;;4920358;29;20032;-65
2021/12/11 05:18:28;;;;;;;26.10;7.10;;;6.80;99.90;;;;;;4920209;29;20024;-65
2021/12/11 05:20:59;;;;;;;20.15;5.50;;;6.90;99.90;;;;;;4920368;29;20028;-64
2021/12/11 05:23:25;;;;;;;17.00;5.57;;;6.90;99.90;;;;;;4918540;29;20513;-65
2021/12/11 05:25:51;;;;;;;16.15;5.63;;;7.00;99.90;;;;;;4918545;29;20088;-65
2021/12/11 05:28:18;;;;;;;20.60;6.28;;;7.10;99.90;;;;;;4919893;29;20039;-65
2021/12/11 05:30:47;;;;;;;25.45;6.70;;;7.10;99.90;;;;;;4925632;29;20032;-64
2021/12/11 05:33:15;;;;;;;25.63;7.32;;;7.10;99.90;;;;;;4926609;29;20036;-65
2021/12/11 05:35:41;;;;;;;22.42;10.40;;;7.00;99.90;;;;;;4915613;29;20787;-65
2021/12/11 05:38:09;;;;;;;26.80;11.95;;;7.00;99.90;;;;;;4917935;29;20063;-65
2021/12/11 05:40:39;;;;;;;33.05;12.20;;;7.00;99.90;;;;;;4931548;29;20027;-65
2021/12/11 05:43:07;;;;;;;36.05;12.07;;;7.10;99.90;;;;;;4920318;29;20123;-64
2021/12/11 05:45:33;;;;;;;31.15;10.23;;;7.10;99.90;;;;;;4920495;29;20032;-65
2021/12/11 05:48:00;;;;;;;22.98;7.07;;;7.20;99.90;;;;;;4919346;29;20382;-65
2021/12/11 05:50:34;;;;;;;22.80;9.07;;;7.10;99.90;;;;;;4931004;29;20039;-65
2021/12/11 05:53:00;;;;;;;;;;;7.10;99.90;;;;;;4916698;29;20035;-65
2021/12/11 05:55:28;;;;;;;24.95;8.93;;;7.10;99.90;;;;;;4919974;29;20299;-65
2021/12/11 05:57:57;;;;;;;27.00;9.13;;;7.10;99.90;;;;;;4919540;29;20474;-65
2021/12/11 06:00:30;;;;;;;33.92;13.00;;;7.10;99.90;;;;;;4922696;29;20059;-64
2021/12/11 06:02:56;;;;;;;38.13;13.73;;;7.10;99.90;;;;;;4928430;29;20024;-64
2021/12/11 06:05:22;;;;;;;35.63;13.88;;;7.10;99.90;;;;;;4917924;29;20291;-64
2021/12/11 06:07:47;;;;;;;40.08;12.13;;;7.20;99.90;;;;;;4917286;29;20390;-65
2021/12/11 06:10:19;;;;;;;100.68;43.10;;;7.30;99.90;;;;;;4905201;29;20032;-65
2021/12/11 06:12:48;;;;;;;67.93;26.35;;;7.20;99.90;;;;;;4919361;29;20079;-65
2021/12/11 06:15:14;;;;;;;46.45;16.23;;;7.20;99.90;;;;;;4919755;29;20528;-64
2021/12/11 06:17:45;;;;;;;86.80;33.75;;;7.20;99.90;;;;;;4919501;29;20047;-64
2021/12/11 06:20:15;;;;;;;107.63;42.03;;;7.20;99.90;;;;;;4916118;29;20082;-64
2021/12/11 06:22:41;;;;;;;75.85;27.77;;;7.30;99.90;;;;;;4918828;29;20137;-64
2021/12/11 06:25:11;;;;;;;62.95;24.52;;;7.20;99.90;;;;;;4919883;29;20028;-64
2021/12/11 06:27:39;;;;;;;53.13;22.33;;;7.30;99.90;;;;;;4918457;29;20385;-64
2021/12/11 06:30:06;;;;;;;55.00;22.00;;;7.40;99.90;;;;;;4919364;29;20032;-65
2021/12/11 06:32:32;;;;;;;46.30;17.92;;;7.30;99.90;;;;;;4918949;29;20039;-65
2021/12/11 06:35:00;;;;;;;49.30;16.73;;;7.30;99.90;;;;;;4916215;29;20050;-64
2021/12/11 06:37:26;;;;;;;47.30;12.23;;;7.30;99.90;;;;;;4919512;29;20035;-64
2021/12/11 06:39:52;;;;;;;27.60;7.65;;;7.20;99.90;;;;;;4919274;29;20033;-65
2021/12/11 06:42:19;;;;;;;29.05;7.53;;;7.20;99.90;;;;;;4919384;29;20489;-64
2021/12/11 06:44:46;;;;;;;32.97;10.05;;;7.20;99.90;;;;;;4919586;29;20694;-65
2021/12/11 06:47:14;;;;;;;38.08;9.77;;;7.20;99.90;;;;;;4915783;29;20036;-64
2021/12/11 06:49:40;;;;;;;34.38;7.07;;;7.10;99.90;;;;;;4918378;29;20047;-65
2021/12/11 06:52:12;;;;;;;21.10;5.03;;;7.00;99.90;;;;;;4919187;29;20028;-65
2021/12/11 06:54:38;;;;;;;30.13;7.40;;;7.00;99.90;;;;;;4920662;29;20565;-65
2021/12/11 06:57:05;;;;;;;29.08;7.40;;;7.10;99.90;;;;;;4919315;29;20032;-64
2021/12/11 06:59:32;;;;;;;23.83;6.97;;;7.10;99.90;;;;;;4918314;29;20028;-65
2021/12/11 07:01:57;;;;;;;24.73;6.50;;;7.10;99.90;;;;;;4916474;29;20592;-65
2021/12/11 07:04:23;;;;;;;31.50;6.53;;;7.10;99.90;;;;;;4918936;29;20095;-65
2021/12/11 07:06:52;;;;;;;25.95;9.70;;;7.10;99.90;;;;;;4919625;29;20047;-63
2021/12/11 07:09:19;;;;;;;34.85;10.27;;;7.20;99.90;;;;;;4921004;29;20478;-63
2021/12/11 07:11:47;;;;;;;26.13;6.00;;;7.10;99.90;;;;;;4929688;29;20046;-64
2021/12/11 07:14:16;;;;;;;24.13;6.88;;;7.10;99.90;;;;;;4930320;29;20054;-64
2021/12/11 07:16:42;;;;;;;25.50;9.23;;;7.10;99.90;;;;;;4935449;29;20067;-65
2021/12/11 07:19:09;;;;;;;39.58;21.90;;;7.10;99.90;;;;;;4934897;29;20031;-65
2021/12/11 07:21:35;;;;;;;34.13;19.02;;;7.10;99.90;;;;;;4933572;29;20027;-63
2021/12/11 07:24:02;;;;;;;38.35;17.13;;;7.10;99.90;;;;;;4933255;29;20091;-63
2021/12/11 07:26:32;;;;;;;34.53;16.00;;;7.10;99.90;;;;;;4933289;29;20090;-63
2021/12/11 07:29:08;;;;;;;37.75;20.15;;;7.10;99.90;;;;;;4934668;29;20039;-63
2021/12/11 07:31:35;;;;;;;27.00;13.45;;;7.20;99.90;;;;;;4934991;29;20052;-63
2021/12/11 07:34:01;;;;;;;22.10;8.43;;;7.00;99.90;;;;;;4933286;29;20036;-64
2021/12/11 07:36:27;;;;;;;22.63;8.27;;;6.90;99.90;;;;;;4932852;29;20019;-64
2021/12/11 07:38:54;;;;;;;23.13;6.90;;;6.90;99.90;;;;;;4929522;29;20059;-65
2021/12/11 07:41:21;;;;;;;18.50;6.68;;;6.80;99.90;;;;;;4916879;29;20115;-64
2021/12/11 07:43:47;;;;;;;23.45;11.95;;;6.80;99.90;;;;;;4919738;29;20028;-65
2021/12/11 07:46:18;;;;;;;20.25;10.50;;;7.00;99.90;;;;;;4922301;29;20114;-65
2021/12/11 07:48:45;;;;;;;27.15;11.32;;;7.10;99.90;;;;;;4927467;29;20528;-64
2021/12/11 07:51:11;;;;;;;22.20;9.20;;;7.10;99.90;;;;;;4928807;29;20119;-64
2021/12/11 07:53:37;;;;;;;32.22;11.18;;;6.90;99.90;;;;;;4921630;29;20413;-64
2021/12/11 07:56:04;;;;;;;29.67;11.75;;;7.00;99.90;;;;;;4917991;29;20114;-64
2021/12/11 07:58:32;;;;;;;27.90;10.07;;;6.90;99.90;;;;;;4921608;29;20506;-65
2021/12/11 08:00:58;;;;;;;18.75;9.10;;;7.00;99.90;;;;;;4921909;29;20029;-64
2021/12/11 08:03:24;;;;;;;19.38;7.88;;;6.90;99.90;;;;;;4921651;29;20042;-64
2021/12/11 08:05:52;;;;;;;28.10;12.05;;;7.10;99.90;;;;;;4921906;29;20028;-64
2021/12/11 08:08:19;;;;;;;28.25;12.50;;;7.10;99.90;;;;;;4918432;29;20056;-64
2021/12/11 08:10:49;;;;;;;42.08;22.77;;;7.20;99.90;;;;;;4919163;29;20055;-64
2021/12/11 08:13:15;;;;;;;34.63;16.42;;;7.20;99.90;;;;;;4923917;29;20179;-64
2021/12/11 08:15:41;;;;;;;39.60;16.85;;;7.30;99.90;;;;;;4924339;29;20056;-64
2021/12/11 08:18:09;;;;;;;36.35;17.65;;;7.30;99.90;;;;;;4921866;29;20123;-64
2021/12/11 08:20:36;;;;;;;43.33;20.00;;;7.30;99.90;;;;;;4932635;29;20020;-64
2021/12/11 08:23:03;;;;;;;42.40;18.15;;;7.30;99.90;;;;;;4917253;29;20035;-63
2021/12/11 08:25:34;;;;;;;33.03;15.88;;;7.30;99.90;;;;;;4921568;29;20055;-64
2021/12/11 08:28:00;;;;;;;32.45;14.25;;;7.30;99.90;;;;;;4920429;29;20508;-64
2021/12/11 08:30:30;;;;;;;31.48;12.48;;;7.40;99.90;;;;;;4921375;29;20031;-65
2021/12/11 08:32:56;;;;;;;23.55;9.82;;;7.50;99.90;;;;;;4921278;29;20039;-65
2021/12/11 08:35:22;;;;;;;26.10;11.68;;;7.50;99.90;;;;;;4919264;29;20132;-65
2021/12/11 08:37:51;;;;;;;39.85;16.52;;;7.60;99.90;;;;;;4918780;29;20099;-65
2021/12/11 08:40:30;;;;;;;42.15;18.95;;;7.60;99.90;;;;;;4920857;29;20559;-64
2021/12/11 08:42:56;;;;;;;37.35;14.70;;;7.60;99.90;;;;;;4920976;29;20032;-65
2021/12/11 08:45:26;;;;;;;31.92;12.07;;;7.70;99.90;;;;;;4923921;29;20107;-64
2021/12/11 08:47:58;;;;;;;24.88;10.80;;;7.90;99.90;;;;;;4930116;29;20090;-64
2021/12/11 08:50:30;;;;;;;22.90;11.13;;;8.00;99.90;;;;;;4917775;29;20039;-64
2021/12/11 08:52:57;;;;;;;28.75;11.13;;;8.00;99.90;;;;;;4932155;29;20032;-63
2021/12/11 08:55:31;;;;;;;25.15;11.55;;;7.90;99.90;;;;;;4921203;29;20508;-63
2021/12/11 08:57:58;;;;;;;31.40;14.25;;;8.10;99.90;;;;;;4921197;29;20112;-64
2021/12/11 09:00:29;;;;;;;31.00;13.73;;;8.20;99.90;;;;;;4923622;29;20039;-63
2021/12/11 09:03:04;;;;;;;25.20;13.50;;;8.30;99.90;;;;;;4929501;29;20039;-64
2021/12/11 09:05:36;;;;;;;35.85;14.40;;;8.40;99.90;;;;;;4917787;29;20402;-64
2021/12/11 09:08:12;;;;;;;29.35;12.75;;;8.40;99.90;;;;;;4931318;29;20435;-64
2021/12/11 09:10:40;;;;;;;118.82;83.88;;;8.40;99.90;;;;;;4931531;29;20016;-62
2021/12/11 09:13:24;;;;;;;79.95;57.20;;;8.40;99.90;;;;;;4928947;29;20043;-65
2021/12/11 09:15:57;;;;;;;65.85;46.45;;;8.50;99.90;;;;;;4922515;29;20036;-64
2021/12/11 09:18:37;;;;;;;29.90;13.18;;;8.80;99.90;;;;;;4919658;29;20042;-65
2021/12/11 09:21:16;;;;;;;18.10;6.68;;;8.80;99.90;;;;;;4919292;29;20124;-64
2021/12/11 09:24:09;;;;;;;26.88;9.45;;;9.10;99.90;;;;;;4919972;29;20035;-64
2021/12/11 09:27:04;;;;;;;17.30;5.97;;;9.40;99.90;;;;;;4923987;29;20075;-66
2021/12/11 09:29:51;;;;;;;17.73;6.97;;;9.80;99.90;;;;;;4919836;29;20489;-62
2021/12/11 09:32:42;;;;;;;19.75;7.53;;;9.80;99.90;;;;;;4915968;29;20028;-66
2021/12/11 09:35:15;;;;;;;19.58;7.40;;;9.90;99.90;;;;;;4914850;29;20036;-64
2021/12/11 09:37:44;;;;;;;17.13;6.75;;;9.70;99.90;;;;;;4928850;29;20115;-66
2021/12/11 09:40:34;;;;;;;18.83;6.93;;;9.70;99.90;;;;;;4919747;29;20044;-66
2021/12/11 09:43:01;;;;;;;19.15;6.93;;;9.80;99.90;;;;;;4919188;29;20040;-69
2021/12/11 09:45:30;;;;;;;21.10;7.88;;;10.20;99.90;;;;;;4922403;29;20106;-69
2021/12/11 09:48:05;;;;;;;15.43;6.30;;;10.20;99.90;;;;;;4927649;29;20059;-67
2021/12/11 09:50:41;;;;;;;19.17;6.45;;;10.30;99.90;;;;;;4918098;29;20028;-66
2021/12/11 09:53:07;;;;;;;18.27;4.35;;;11.30;99.90;;;;;;4914141;29;20055;-66
2021/12/11 09:55:37;;;;;;;15.20;5.45;;;11.70;99.90;;;;;;4919395;29;20063;-67
2021/12/11 09:58:08;;;;;;;18.80;5.22;;;11.80;99.90;;;;;;4918419;29;20115;-67
2021/12/11 10:00:49;;;;;;;23.58;5.90;;;10.80;99.90;;;;;;4907412;29;20468;-69
2021/12/11 10:03:19;;;;;;;49.85;25.33;;;11.40;99.90;;;;;;4918853;29;20032;-69
2021/12/11 10:06:00;;;;;;;20.27;8.15;;;12.80;99.90;;;;;;4931723;29;20032;-67
2021/12/11 10:08:40;;;;;;;30.65;11.43;;;13.70;99.90;;;;;;4901239;29;20068;-68
2021/12/11 10:11:20;;;;;;;21.05;5.32;;;12.90;99.90;;;;;;4915543;29;20047;-68
2021/12/11 10:13:53;;;;;;;19.38;5.38;;;13.30;99.90;;;;;;4928580;29;20521;-68
2021/12/11 10:16:22;;;;;;;18.83;4.50;;;12.60;99.90;;;;;;4918860;29;20386;-66
2021/12/11 10:18:49;;;;;;;22.05;4.97;;;12.00;99.90;;;;;;4919283;29;20297;-63
2021/12/11 10:21:37;;;;;;;17.02;4.97;;;12.70;99.90;;;;;;4919339;29;20402;-67
2021/12/11 10:24:10;;;;;;;22.73;5.80;;;13.10;99.90;;;;;;4919235;29;20020;-64
2021/12/11 10:26:36;;;;;;;19.55;4.82;;;13.10;99.90;;;;;;4926927;29;20437;-66
2021/12/11 10:29:09;;;;;;;21.48;6.35;;;13.30;99.90;;;;;;4930480;29;20055;-67
2021/12/11 10:31:47;;;;;;;22.15;7.28;;;13.30;99.90;;;;;;4929594;29;20023;-69
2021/12/11 10:34:18;;;;;;;21.25;7.65;;;13.40;99.90;;;;;;4928515;29;20058;-67
2021/12/11 10:36:49;;;;;;;20.95;7.25;;;13.80;99.90;;;;;;4920694;29;20083;-67
2021/12/11 10:39:16;;;;;;;23.40;7.03;;;13.90;99.90;;;;;;4919291;29;20268;-66
2021/12/11 10:41:43;;;;;;;21.27;5.43;;;13.50;99.90;;;;;;4919502;29;20031;-67
2021/12/11 10:44:22;;;;;;;21.50;5.47;;;13.50;99.90;;;;;;4915189;29;20123;-67
2021/12/11 10:46:56;;;;;;;13.95;4.13;;;13.30;99.90;;;;;;4911180;29;20087;-68
2021/12/11 10:49:23;;;;;;;18.00;4.70;;;13.20;99.90;;;;;;4918850;29;20103;-66
2021/12/11 10:51:56;;;;;;;13.70;4.22;;;13.30;99.90;;;;;;4921825;29;20028;-66
2021/12/11 10:54:22;;;;;;;24.20;5.20;;;12.90;99.90;;;;;;4922062;29;20099;-64
2021/12/11 10:56:48;;;;;;;14.43;4.78;;;12.80;99.90;;;;;;4921495;29;20517;-66
2021/12/11 10:59:22;;;;;;;21.20;5.38;;;12.40;99.90;;;;;;4916923;29;20501;-68
2021/12/11 11:01:50;;;;;;;;;;;12.50;99.90;;;;;;4920653;29;20040;-67
2021/12/11 11:04:25;;;;;;;20.58;5.13;;;12.60;99.90;;;;;;4932001;29;20369;-66
2021/12/11 11:06:52;;;;;;;15.43;4.22;;;12.60;99.90;;;;;;4924565;29;20031;-66
2021/12/11 11:09:20;;;;;;;23.13;4.95;;;12.50;99.90;;;;;;4921530;29;20024;-66
2021/12/11 11:11:48;;;;;;;17.25;5.35;;;12.70;99.90;;;;;;4922408;29;20079;-68
2021/12/11 11:14:15;;;;;;;25.92;5.53;;;12.70;99.90;;;;;;4918887;29;20130;-66
2021/12/11 11:16:43;;;;;;;23.67;5.40;;;12.40;99.90;;;;;;4920702;29;20040;-67
2021/12/11 11:19:09;;;;;;;18.23;4.45;;;12.60;99.90;;;;;;4922221;29;20039;-65
2021/12/11 11:21:40;;;;;;;16.95;4.10;;;12.70;99.90;;;;;;4921591;29;20564;-66
2021/12/11 11:24:07;;;;;;;19.05;4.18;;;12.80;99.90;;;;;;4922129;29;20856;-65
2021/12/11 11:26:37;;;;;;;21.92;4.97;;;12.90;99.90;;;;;;4921202;29;20034;-67
2021/12/11 11:29:08;;;;;;;17.50;4.53;;;12.90;99.90;;;;;;4918276;29;20028;-65
2021/12/11 11:31:36;;;;;;;19.85;4.85;;;13.00;99.90;;;;;;4920486;29;20043;-65
2021/12/11 11:34:09;;;;;;;16.35;4.80;;;13.10;99.90;;;;;;4921767;29;20040;-65
2021/12/11 11:36:36;;;;;;;17.50;3.85;;;13.30;99.90;;;;;;4919893;29;20435;-66
2021/12/11 11:39:10;;;;;;;18.80;4.60;;;13.20;99.90;;;;;;4921443;29;20154;-65
2021/12/11 11:41:56;;;;;;;20.73;4.78;;;13.30;99.90;;;;;;4918761;29;20087;-65
2021/12/11 11:44:26;;;;;;;20.13;4.57;;;13.00;99.90;;;;;;4903456;29;20119;-66
2021/12/11 11:46:56;;;;;;;15.85;4.10;;;13.20;99.90;;;;;;4932609;29;20035;-65
2021/12/11 11:49:22;;;;;;;16.25;4.18;;;13.30;99.90;;;;;;4921240;29;20043;-65
2021/12/11 11:51:57;;;;;;;20.98;4.00;;;13.30;99.90;;;;;;4921569;29;20032;-65
2021/12/11 11:54:25;;;;;;;18.45;4.60;;;13.20;99.90;;;;;;4920577;29;20501;-65
2021/12/11 11:56:59;;;;;;;20.10;4.43;;;13.20;99.90;;;;;;4921820;29;20038;-63
2021/12/11 11:59:25;;;;;;;;;;;13.20;99.90;;;;;;4918346;29;20024;-64
2021/12/11 12:01:56;;;;;;;19.92;4.22;;;13.60;99.90;;;;;;4918667;29;20400;-64
2021/12/11 12:04:22;;;;;;;17.40;4.20;;;13.40;99.90;;;;;;4920294;29;20032;-64
2021/12/11 12:06:55;;;;;;;17.83;4.25;;;13.40;99.90;;;;;;4920709;29;20084;-64
2021/12/11 12:09:23;;;;;;;18.98;5.25;;;13.30;99.90;;;;;;4920543;29;20028;-65
2021/12/11 12:11:49;;;;;;;16.42;4.57;;;13.60;99.90;;;;;;4921776;29;20039;-65
2021/12/11 12:14:21;;;;;;;16.88;4.45;;;13.60;99.90;;;;;;4918197;29;20056;-64
2021/12/11 12:16:48;;;;;;;18.52;4.82;;;14.00;99.90;;;;;;4918409;29;20104;-65
2021/12/11 12:19:15;;;;;;;16.17;4.47;;;13.80;99.90;;;;;;4930921;29;20039;-65
2021/12/11 12:21:44;;;;;;;15.18;4.38;;;13.60;99.90;;;;;;4929600;29;20012;-65
2021/12/11 12:24:10;;;;;;;18.23;4.53;;;13.60;99.90;;;;;;4928474;29;20028;-64
2021/12/11 12:26:37;;;;;;;18.58;4.78;;;13.80;99.90;;;;;;4920938;29;20381;-65
2021/12/11 12:29:05;;;;;;;15.98;4.35;;;13.90;99.90;;;;;;4918057;29;20488;-64
2021/12/11 12:31:38;;;;;;;15.52;3.58;;;14.30;99.90;;;;;;4931313;29;20024;-65
2021/12/11 12:34:06;;;;;;;17.92;4.45;;;14.90;99.90;;;;;;4921602;29;20051;-65
2021/12/11 12:36:33;;;;;;;19.00;3.88;;;15.00;99.90;;;;;;4924770;29;20031;-65
2021/12/11 12:38:59;;;;;;;16.55;4.30;;;15.00;99.90;;;;;;4929483;29;20031;-64
2021/12/11 12:42:15;;;;;;;20.30;3.88;;;14.60;99.90;;;;;;4918324;29;20031;-64
2021/12/11 12:44:41;;;;;;;14.35;3.50;;;14.60;99.90;;;;;;4918545;29;20068;-65
2021/12/11 12:47:17;;;;;;;13.43;3.70;;;14.60;99.90;;;;;;4917573;29;20035;-65
2021/12/11 12:49:48;;;;;;;16.13;4.10;;;14.70;99.90;;;;;;4931785;29;20035;-65
2021/12/11 12:52:29;;;;;;;19.88;4.03;;;14.60;99.90;;;;;;4930390;29;20489;-64
2021/12/11 12:54:55;;;;;;;17.02;4.18;;;14.10;99.90;;;;;;4928462;29;20039;-65
2021/12/11 12:57:42;;;;;;;15.98;3.47;;;14.20;99.90;;;;;;4926296;29;20083;-64
2021/12/11 13:00:28;;;;;;;19.30;3.50;;;14.50;99.90;;;;;;4920729;29;20032;-65
2021/12/11 13:02:57;;;;;;;15.35;3.65;;;14.60;99.90;;;;;;4920519;29;20035;-65
2021/12/11 13:05:33;;;;;;;16.83;3.92;;;14.50;99.90;;;;;;4918349;29;20080;-65
2021/12/11 13:08:10;;;;;;;13.10;3.20;;;14.60;99.90;;;;;;4917118;29;20032;-62
2021/12/11 13:10:42;;;;;;;14.68;3.55;;;14.70;99.90;;;;;;4920338;29;20036;-64
2021/12/11 13:13:10;;;;;;;14.18;3.67;;;14.40;99.90;;;;;;4919663;29;20040;-64
2021/12/11 13:15:45;;;;;;;12.90;3.20;;;14.40;99.90;;;;;;4919992;29;20067;-62